»·PEaware :: N6515D KSNA-KSBA

N6515D :: KSNA-KSBA

FLIGHT INFORMATION

Flight Status: Arrived
Operator: Privately registered:
United States
More flights under this callsign
Pilot: Charles S. (11412)
Aircraft: Unknown
(DA62)
More flights by this aircraft type
Origin: KSNA John Wayne-Orange Co
United States
Destination: KSBA Santa Barbara Mun
United States
More flights between these airports :: More routes between these airports
Route: +SLI V23 LAX V299 VTU VTU282R KWANG
File this flight plan on PilotEdge
Remarks:
Altitude:
(Current/Filed)
6,000ft
Speed:
(Current/Filed)
160kts
Departed: 15-Oct-18 03:35 PM
Arrived: 15-Oct-18 04:21 PM
Distance/Time
Traveled:
108nm/0:46
Distance/Time
To Go:
Arrived

Flight Plot

Page will automatically refresh every two minutes.


Map Options




Map Legend


Flown Route
Filed Route
Departure Airport
Arrival Airport
Navaid (VOR, NDB)
Fix

Horizontal Profiles

Position Reports

Time Latitude Longitude Heading Altitude Ground
Speed
15-Oct-18 15:07 33.672219 -117.873701 206 60ft 0kts
15-Oct-18 15:08 33.672219 -117.873701 206 60ft 0kts
15-Oct-18 15:09 33.672219 -117.873701 206 60ft 0kts
15-Oct-18 15:10 33.672219 -117.873701 206 60ft 0kts
15-Oct-18 15:11 33.672219 -117.873701 206 60ft 0kts
15-Oct-18 15:12 33.672219 -117.873701 206 60ft 0kts
15-Oct-18 15:13 33.672219 -117.873701 206 60ft 0kts
15-Oct-18 15:14 33.672219 -117.873701 206 60ft 0kts
15-Oct-18 15:15 33.672219 -117.873701 206 60ft 0kts
15-Oct-18 15:16 33.672219 -117.873701 206 60ft 0kts
15-Oct-18 15:17 33.672219 -117.873701 206 60ft 0kts
15-Oct-18 15:18 33.672219 -117.873701 206 60ft 0kts
15-Oct-18 15:19 33.672219 -117.873701 206 60ft 0kts
15-Oct-18 15:20 33.672219 -117.873701 206 60ft 0kts
15-Oct-18 15:21 33.672219 -117.873701 206 60ft 0kts
15-Oct-18 15:22 33.672219 -117.873701 206 60ft 0kts
15-Oct-18 15:23 33.672219 -117.873701 206 60ft 0kts
15-Oct-18 15:24 33.672219 -117.873701 206 60ft 0kts
15-Oct-18 15:25 33.672219 -117.873701 206 60ft 0kts
15-Oct-18 15:26 33.672219 -117.873701 206 60ft 0kts
15-Oct-18 15:27 33.672219 -117.873701 206 60ft 0kts
15-Oct-18 15:28 33.672094 -117.873726 137 60ft 2kts
15-Oct-18 15:29 33.671943 -117.873394 117 60ft 0kts
15-Oct-18 15:30 33.671943 -117.873394 117 60ft 0kts
15-Oct-18 15:31 33.671932 -117.873381 113 60ft 0kts
15-Oct-18 15:32 33.671932 -117.873381 113 60ft 0kts
15-Oct-18 15:33 33.669754 -117.874079 208 60ft 26kts
15-Oct-18 15:34 33.668263 -117.874655 138 60ft 0kts
15-Oct-18 15:35 33.668263 -117.874655 138 60ft 0kts
15-Oct-18 15:36 33.668263 -117.874655 138 60ft 0kts
15-Oct-18 15:37 33.669811 -117.872543 27 60ft 52kts
15-Oct-18 15:38 33.688863 -117.865741 338 630ft 104kts
15-Oct-18 15:39 33.683889 -117.905144 250 1576ft 141kts
15-Oct-18 15:40 33.667721 -117.951079 252 1992ft 157kts
15-Oct-18 15:41 33.651796 -117.997724 250 1995ft 147kts
15-Oct-18 15:42 33.637075 -118.042703 253 1997ft 143kts
15-Oct-18 15:43 33.623143 -118.086719 251 1999ft 140kts
15-Oct-18 15:44 33.620016 -118.129807 313 1999ft 131kts
15-Oct-18 15:45 33.642428 -118.153360 323 2619ft 130kts
15-Oct-18 15:46 33.675262 -118.185196 326 3539ft 131kts
15-Oct-18 15:47 33.703668 -118.212401 327 4335ft 131kts
15-Oct-18 15:48 33.727203 -118.234872 328 4996ft 130kts
15-Oct-18 15:49 33.759912 -118.266183 329 5918ft 130kts
15-Oct-18 15:50 33.785971 -118.290953 327 6011ft 156kts
15-Oct-18 15:51 33.826610 -118.329928 327 6009ft 166kts
15-Oct-18 15:52 33.862738 -118.364603 326 6007ft 168kts
15-Oct-18 15:53 33.893101 -118.393781 326 6004ft 168kts
15-Oct-18 15:54 33.929394 -118.428799 322 6003ft 169kts
15-Oct-18 15:55 33.949113 -118.482855 298 6005ft 178kts
15-Oct-18 15:56 33.967094 -118.539001 299 6003ft 180kts
15-Oct-18 15:57 33.985115 -118.595470 298 5999ft 182kts
15-Oct-18 15:58 34.005823 -118.660538 298 6001ft 183kts
15-Oct-18 15:59 34.020981 -118.708315 298 6008ft 184kts
15-Oct-18 16:00 34.039313 -118.766546 296 6006ft 189kts
15-Oct-18 16:01 34.055659 -118.827236 293 6011ft 192kts
15-Oct-18 16:02 34.071998 -118.888394 293 6014ft 193kts
15-Oct-18 16:03 34.088503 -118.950206 292 5999ft 195kts
15-Oct-18 16:04 34.102760 -119.003761 292 5996ft 194kts
15-Oct-18 16:05 34.120900 -119.063758 302 5999ft 191kts
15-Oct-18 16:06 34.145065 -119.121317 302 5996ft 193kts
15-Oct-18 16:07 34.168762 -119.177858 301 5991ft 181kts
15-Oct-18 16:08 34.190724 -119.230502 300 5995ft 171kts
15-Oct-18 16:09 34.210573 -119.277712 299 5999ft 167kts
15-Oct-18 16:10 34.231427 -119.327657 299 6000ft 166kts
15-Oct-18 16:11 34.252140 -119.377206 298 6000ft 165kts
15-Oct-18 16:12 34.272766 -119.426859 298 6000ft 165kts
15-Oct-18 16:13 34.293396 -119.476517 299 6001ft 165kts
15-Oct-18 16:14 34.314945 -119.526818 303 5730ft 176kts
15-Oct-18 16:15 34.344548 -119.570395 311 4887ft 148kts
15-Oct-18 16:16 34.369962 -119.604832 312 3948ft 134kts
15-Oct-18 16:17 34.397378 -119.640417 311 2740ft 149kts
15-Oct-18 16:18 34.421811 -119.676961 297 2308ft 139kts
15-Oct-18 16:19 34.430613 -119.722914 264 1731ft 142kts
15-Oct-18 16:20 34.428934 -119.767038 268 1190ft 107kts
15-Oct-18 16:21 34.428443 -119.800616 268 531ft 83kts
15-Oct-18 16:22 34.428029 -119.827785 269 166ft 85kts
15-Oct-18 16:23 34.428036 -119.846268 18 17ft 15kts
15-Oct-18 16:24 34.428431 -119.845630 66 17ft 0kts
15-Oct-18 16:25 34.428431 -119.845630 66 17ft 0kts
15-Oct-18 16:26 34.429873 -119.843222 326 17ft 0kts

Navigation Log

Ident Type
1. KSNA Airport
2. SLI Navaid
3. POPPR Fix
4. HERMO Fix
5. LAX Navaid
6. SADDE Fix
7. VTU Navaid
8. KWANG Fix
9. KSBA Airport